OITK

Khoy Airport

Airport
ICAO code
OITK
IATA Code
KHY
Summary
ICAO Region
MID
ICAO Territory
Location

Azab, West Azerbaijan Province

Serving
Khoy
Elevation
3981 ft
Coordinates
38° 25' 15" N , 44° 58' 22" E
KCC
Metar
Observation
OITK 061400Z 22004KT 9999 FEW035CB FEW040 BKN170 04/M02 Q1020
Station
Khoy
Date/Time
2022-12-06 14:00:00
Wind direction
220°
Wind speed
04 kts
Lowest cloud amount
few clouds
Temperature
4°C
Dew point
-2°C
Humidity
64%
QNH
1020 hPa
Weather condition
n/a

Airport 12km south of the city of Khoy, Iran.

Climatology

Semi-arid climate (Köppen climate classification BSk).

Runways

Designator Length Width Surface Rops
15/33 2801 30 ASP No/No

Airport map

Aerial View

SKYbrary Partners:

Safety knowledge contributed by: